sensor_id;sensor_type;location;lat;lon;timestamp;P1;durP1;ratioP1;P2;durP2;ratioP2
9906;SDS011;4992;51.628;6.664;2023-11-19T00:00:05;21.00;;;15.70;;
9906;SDS011;4992;51.628;6.664;2023-11-19T00:02:36;18.77;;;15.32;;
9906;SDS011;4992;51.628;6.664;2023-11-19T00:05:03;17.50;;;15.35;;
9906;SDS011;4992;51.628;6.664;2023-11-19T00:07:29;17.48;;;15.15;;
9906;SDS011;4992;51.628;6.664;2023-11-19T00:09:54;15.55;;;13.55;;
9906;SDS011;4992;51.628;6.664;2023-11-19T00:12:20;17.88;;;15.48;;
9906;SDS011;4992;51.628;6.664;2023-11-19T00:14:45;15.05;;;13.45;;
9906;SDS011;4992;51.628;6.664;2023-11-19T00:17:11;16.83;;;14.45;;
9906;SDS011;4992;51.628;6.664;2023-11-19T00:19:37;17.73;;;14.73;;
9906;SDS011;4992;51.628;6.664;2023-11-19T00:22:02;18.00;;;14.95;;
9906;SDS011;4992;51.628;6.664;2023-11-19T00:24:29;17.17;;;14.98;;
9906;SDS011;4992;51.628;6.664;2023-11-19T00:26:55;16.95;;;15.18;;
9906;SDS011;4992;51.628;6.664;2023-11-19T00:29:21;18.90;;;15.48;;
9906;SDS011;4992;51.628;6.664;2023-11-19T00:31:47;19.70;;;15.95;;
9906;SDS011;4992;51.628;6.664;2023-11-19T00:34:12;21.27;;;16.63;;
9906;SDS011;4992;51.628;6.664;2023-11-19T00:36:38;22.40;;;16.50;;
9906;SDS011;4992;51.628;6.664;2023-11-19T00:39:04;24.35;;;17.45;;
9906;SDS011;4992;51.628;6.664;2023-11-19T00:41:30;20.90;;;16.10;;
9906;SDS011;4992;51.628;6.664;2023-11-19T00:43:56;21.52;;;17.13;;
9906;SDS011;4992;51.628;6.664;2023-11-19T00:46:21;27.65;;;17.73;;
9906;SDS011;4992;51.628;6.664;2023-11-19T00:48:47;20.77;;;16.35;;
9906;SDS011;4992;51.628;6.664;2023-11-19T00:51:12;23.27;;;17.67;;
9906;SDS011;4992;51.628;6.664;2023-11-19T00:53:39;20.33;;;17.80;;
9906;SDS011;4992;51.628;6.664;2023-11-19T00:56:04;21.13;;;16.48;;
9906;SDS011;4992;51.628;6.664;2023-11-19T00:58:30;22.20;;;16.70;;
9906;SDS011;4992;51.628;6.664;2023-11-19T01:00:56;23.27;;;17.08;;
9906;SDS011;4992;51.628;6.664;2023-11-19T01:03:22;20.33;;;16.15;;
9906;SDS011;4992;51.628;6.664;2023-11-19T01:05:48;17.45;;;15.63;;
9906;SDS011;4992;51.628;6.664;2023-11-19T01:08:13;22.70;;;16.63;;
9906;SDS011;4992;51.628;6.664;2023-11-19T01:10:40;18.17;;;15.88;;
9906;SDS011;4992;51.628;6.664;2023-11-19T01:13:06;21.42;;;14.68;;
9906;SDS011;4992;51.628;6.664;2023-11-19T01:15:32;20.30;;;15.70;;
9906;SDS011;4992;51.628;6.664;2023-11-19T01:17:57;17.92;;;14.30;;
9906;SDS011;4992;51.628;6.664;2023-11-19T01:20:23;17.63;;;14.05;;
9906;SDS011;4992;51.628;6.664;2023-11-19T01:22:49;17.10;;;13.75;;
9906;SDS011;4992;51.628;6.664;2023-11-19T01:25:15;14.70;;;12.68;;
9906;SDS011;4992;51.628;6.664;2023-11-19T01:27:41;14.00;;;12.55;;
9906;SDS011;4992;51.628;6.664;2023-11-19T01:30:06;13.25;;;11.68;;
9906;SDS011;4992;51.628;6.664;2023-11-19T01:32:34;14.98;;;10.60;;
9906;SDS011;4992;51.628;6.664;2023-11-19T01:35:01;12.63;;;11.00;;
9906;SDS011;4992;51.628;6.664;2023-11-19T01:37:27;13.00;;;11.50;;
9906;SDS011;4992;51.628;6.664;2023-11-19T01:39:53;13.23;;;11.82;;
9906;SDS011;4992;51.628;6.664;2023-11-19T01:42:18;14.93;;;10.85;;
9906;SDS011;4992;51.628;6.664;2023-11-19T01:44:54;13.35;;;10.98;;
9906;SDS011;4992;51.628;6.664;2023-11-19T01:47:23;11.52;;;10.43;;
9906;SDS011;4992;51.628;6.664;2023-11-19T01:49:49;12.27;;;11.07;;
9906;SDS011;4992;51.628;6.664;2023-11-19T01:52:15;12.82;;;11.30;;
9906;SDS011;4992;51.628;6.664;2023-11-19T01:54:41;11.73;;;10.63;;
9906;SDS011;4992;51.628;6.664;2023-11-19T01:57:07;11.73;;;10.50;;
9906;SDS011;4992;51.628;6.664;2023-11-19T01:59:34;14.07;;;10.60;;
9906;SDS011;4992;51.628;6.664;2023-11-19T02:01:59;11.85;;;10.52;;
9906;SDS011;4992;51.628;6.664;2023-11-19T02:04:25;12.40;;;9.88;;
9906;SDS011;4992;51.628;6.664;2023-11-19T02:06:51;11.23;;;9.80;;
9906;SDS011;4992;51.628;6.664;2023-11-19T02:09:21;13.23;;;10.02;;
9906;SDS011;4992;51.628;6.664;2023-11-19T02:11:46;13.02;;;10.00;;
9906;SDS011;4992;51.628;6.664;2023-11-19T02:14:16;12.63;;;9.20;;
9906;SDS011;4992;51.628;6.664;2023-11-19T02:16:42;13.20;;;9.05;;
9906;SDS011;4992;51.628;6.664;2023-11-19T02:19:08;12.30;;;7.95;;
9906;SDS011;4992;51.628;6.664;2023-11-19T02:21:36;12.55;;;8.35;;
9906;SDS011;4992;51.628;6.664;2023-11-19T02:24:06;10.25;;;7.70;;
9906;SDS011;4992;51.628;6.664;2023-11-19T02:27:07;11.90;;;7.80;;
9906;SDS011;4992;51.628;6.664;2023-11-19T02:29:27;13.18;;;7.68;;
9906;SDS011;4992;51.628;6.664;2023-11-19T02:31:53;17.02;;;8.05;;
9906;SDS011;4992;51.628;6.664;2023-11-19T02:34:20;16.63;;;7.65;;
9906;SDS011;4992;51.628;6.664;2023-11-19T02:36:46;11.48;;;6.85;;
9906;SDS011;4992;51.628;6.664;2023-11-19T02:39:12;16.23;;;7.18;;
9906;SDS011;4992;51.628;6.664;2023-11-19T02:41:38;12.48;;;7.00;;
9906;SDS011;4992;51.628;6.664;2023-11-19T02:44:05;16.48;;;7.47;;
9906;SDS011;4992;51.628;6.664;2023-11-19T02:46:31;13.68;;;6.97;;
9906;SDS011;4992;51.628;6.664;2023-11-19T02:48:57;15.50;;;7.20;;
9906;SDS011;4992;51.628;6.664;2023-11-19T02:51:22;13.65;;;6.82;;
9906;SDS011;4992;51.628;6.664;2023-11-19T02:53:48;10.13;;;5.47;;
9906;SDS011;4992;51.628;6.664;2023-11-19T02:56:14;15.50;;;6.15;;
9906;SDS011;4992;51.628;6.664;2023-11-19T02:58:50;13.93;;;5.82;;
9906;SDS011;4992;51.628;6.664;2023-11-19T03:01:25;11.23;;;5.53;;
9906;SDS011;4992;51.628;6.664;2023-11-19T03:03:59;13.50;;;5.20;;
9906;SDS011;4992;51.628;6.664;2023-11-19T03:06:26;13.90;;;4.93;;
9906;SDS011;4992;51.628;6.664;2023-11-19T03:08:52;16.50;;;5.45;;
9906;SDS011;4992;51.628;6.664;2023-11-19T03:11:17;16.38;;;5.88;;
9906;SDS011;4992;51.628;6.664;2023-11-19T03:13:43;14.35;;;5.03;;
9906;SDS011;4992;51.628;6.664;2023-11-19T03:16:08;16.40;;;4.40;;
9906;SDS011;4992;51.628;6.664;2023-11-19T03:18:36;15.77;;;4.40;;
9906;SDS011;4992;51.628;6.664;2023-11-19T03:21:03;17.08;;;4.95;;
9906;SDS011;4992;51.628;6.664;2023-11-19T03:23:30;8.93;;;3.50;;
9906;SDS011;4992;51.628;6.664;2023-11-19T03:25:56;12.00;;;3.95;;
9906;SDS011;4992;51.628;6.664;2023-11-19T03:28:22;12.75;;;4.05;;
9906;SDS011;4992;51.628;6.664;2023-11-19T03:30:47;12.77;;;3.95;;
9906;SDS011;4992;51.628;6.664;2023-11-19T03:33:13;10.85;;;4.15;;
9906;SDS011;4992;51.628;6.664;2023-11-19T03:35:38;9.15;;;3.58;;
9906;SDS011;4992;51.628;6.664;2023-11-19T03:38:06;12.13;;;4.22;;
9906;SDS011;4992;51.628;6.664;2023-11-19T03:40:31;17.20;;;4.43;;
9906;SDS011;4992;51.628;6.664;2023-11-19T03:42:57;13.55;;;4.20;;
9906;SDS011;4992;51.628;6.664;2023-11-19T03:45:23;13.10;;;4.10;;
9906;SDS011;4992;51.628;6.664;2023-11-19T03:47:49;10.18;;;3.35;;
9906;SDS011;4992;51.628;6.664;2023-11-19T03:50:15;20.30;;;4.63;;
9906;SDS011;4992;51.628;6.664;2023-11-19T03:52:41;15.38;;;3.92;;
9906;SDS011;4992;51.628;6.664;2023-11-19T03:55:07;13.52;;;3.90;;
9906;SDS011;4992;51.628;6.664;2023-11-19T03:57:33;13.77;;;4.40;;
9906;SDS011;4992;51.628;6.664;2023-11-19T03:59:59;16.80;;;4.50;;
9906;SDS011;4992;51.628;6.664;2023-11-19T04:02:28;16.98;;;5.35;;
9906;SDS011;4992;51.628;6.664;2023-11-19T04:04:54;19.58;;;4.22;;
9906;SDS011;4992;51.628;6.664;2023-11-19T04:07:20;22.38;;;4.85;;
9906;SDS011;4992;51.628;6.664;2023-11-19T04:09:45;17.40;;;4.15;;
9906;SDS011;4992;51.628;6.664;2023-11-19T04:12:11;21.23;;;4.20;;
9906;SDS011;4992;51.628;6.664;2023-11-19T04:14:37;26.20;;;5.28;;
9906;SDS011;4992;51.628;6.664;2023-11-19T04:17:03;22.38;;;4.75;;
9906;SDS011;4992;51.628;6.664;2023-11-19T04:19:28;14.23;;;3.50;;
9906;SDS011;4992;51.628;6.664;2023-11-19T04:21:54;19.83;;;4.18;;
9906;SDS011;4992;51.628;6.664;2023-11-19T04:24:19;20.92;;;4.25;;
9906;SDS011;4992;51.628;6.664;2023-11-19T04:26:45;26.63;;;4.55;;
9906;SDS011;4992;51.628;6.664;2023-11-19T04:29:12;24.45;;;4.28;;
9906;SDS011;4992;51.628;6.664;2023-11-19T04:31:38;23.45;;;4.45;;
9906;SDS011;4992;51.628;6.664;2023-11-19T04:34:04;21.92;;;5.22;;
9906;SDS011;4992;51.628;6.664;2023-11-19T04:36:31;19.40;;;4.22;;
9906;SDS011;4992;51.628;6.664;2023-11-19T04:38:58;17.80;;;4.35;;
9906;SDS011;4992;51.628;6.664;2023-11-19T04:41:24;20.30;;;4.00;;
9906;SDS011;4992;51.628;6.664;2023-11-19T04:43:50;16.58;;;4.05;;
9906;SDS011;4992;51.628;6.664;2023-11-19T04:46:15;23.45;;;5.43;;
9906;SDS011;4992;51.628;6.664;2023-11-19T04:48:41;21.90;;;4.40;;
9906;SDS011;4992;51.628;6.664;2023-11-19T04:51:06;27.95;;;4.88;;
9906;SDS011;4992;51.628;6.664;2023-11-19T04:53:34;26.35;;;4.88;;
9906;SDS011;4992;51.628;6.664;2023-11-19T04:56:00;27.58;;;4.15;;
9906;SDS011;4992;51.628;6.664;2023-11-19T04:58:25;29.25;;;5.35;;
9906;SDS011;4992;51.628;6.664;2023-11-19T05:00:52;20.90;;;4.65;;
9906;SDS011;4992;51.628;6.664;2023-11-19T05:03:18;22.73;;;4.72;;
9906;SDS011;4992;51.628;6.664;2023-11-19T05:05:44;23.17;;;5.43;;
9906;SDS011;4992;51.628;6.664;2023-11-19T05:08:09;30.48;;;5.15;;
9906;SDS011;4992;51.628;6.664;2023-11-19T05:10:36;23.48;;;5.57;;
9906;SDS011;4992;51.628;6.664;2023-11-19T05:13:01;21.92;;;5.15;;
9906;SDS011;4992;51.628;6.664;2023-11-19T05:15:27;27.10;;;5.25;;
9906;SDS011;4992;51.628;6.664;2023-11-19T05:17:52;21.98;;;4.57;;
9906;SDS011;4992;51.628;6.664;2023-11-19T05:20:18;26.20;;;5.50;;
9906;SDS011;4992;51.628;6.664;2023-11-19T05:22:44;21.67;;;4.68;;
9906;SDS011;4992;51.628;6.664;2023-11-19T05:25:10;22.65;;;5.15;;
9906;SDS011;4992;51.628;6.664;2023-11-19T05:27:36;30.63;;;6.47;;
9906;SDS011;4992;51.628;6.664;2023-11-19T05:30:03;23.83;;;5.18;;
9906;SDS011;4992;51.628;6.664;2023-11-19T05:32:32;30.65;;;5.40;;
9906;SDS011;4992;51.628;6.664;2023-11-19T05:34:58;25.52;;;5.05;;
9906;SDS011;4992;51.628;6.664;2023-11-19T05:37:23;28.05;;;5.88;;
9906;SDS011;4992;51.628;6.664;2023-11-19T05:39:50;19.35;;;4.63;;
9906;SDS011;4992;51.628;6.664;2023-11-19T05:42:15;22.90;;;5.03;;
9906;SDS011;4992;51.628;6.664;2023-11-19T05:44:41;23.45;;;4.72;;
9906;SDS011;4992;51.628;6.664;2023-11-19T05:47:06;28.02;;;5.60;;
9906;SDS011;4992;51.628;6.664;2023-11-19T05:49:32;24.63;;;5.65;;
9906;SDS011;4992;51.628;6.664;2023-11-19T05:51:58;17.33;;;4.63;;
9906;SDS011;4992;51.628;6.664;2023-11-19T05:54:24;24.10;;;4.60;;
9906;SDS011;4992;51.628;6.664;2023-11-19T05:56:50;26.25;;;5.00;;
9906;SDS011;4992;51.628;6.664;2023-11-19T05:59:18;22.77;;;5.60;;
9906;SDS011;4992;51.628;6.664;2023-11-19T06:01:44;25.63;;;4.45;;
9906;SDS011;4992;51.628;6.664;2023-11-19T06:04:10;21.95;;;4.72;;
9906;SDS011;4992;51.628;6.664;2023-11-19T06:06:36;29.77;;;5.22;;
9906;SDS011;4992;51.628;6.664;2023-11-19T06:09:02;23.15;;;5.15;;
9906;SDS011;4992;51.628;6.664;2023-11-19T06:11:28;24.23;;;4.97;;
9906;SDS011;4992;51.628;6.664;2023-11-19T06:13:53;26.52;;;5.10;;
9906;SDS011;4992;51.628;6.664;2023-11-19T06:16:20;25.13;;;4.90;;
9906;SDS011;4992;51.628;6.664;2023-11-19T06:18:46;26.55;;;5.55;;
9906;SDS011;4992;51.628;6.664;2023-11-19T06:21:11;22.98;;;4.90;;
9906;SDS011;4992;51.628;6.664;2023-11-19T06:23:37;22.90;;;5.90;;
9906;SDS011;4992;51.628;6.664;2023-11-19T06:26:03;18.65;;;4.45;;
9906;SDS011;4992;51.628;6.664;2023-11-19T06:28:30;24.38;;;4.53;;
9906;SDS011;4992;51.628;6.664;2023-11-19T06:30:56;25.02;;;4.95;;
9906;SDS011;4992;51.628;6.664;2023-11-19T06:33:22;24.17;;;4.95;;
9906;SDS011;4992;51.628;6.664;2023-11-19T06:35:49;28.55;;;5.18;;
9906;SDS011;4992;51.628;6.664;2023-11-19T06:38:14;20.92;;;5.22;;
9906;SDS011;4992;51.628;6.664;2023-11-19T06:40:40;22.90;;;4.80;;
9906;SDS011;4992;51.628;6.664;2023-11-19T06:43:06;27.35;;;5.03;;
9906;SDS011;4992;51.628;6.664;2023-11-19T06:45:33;26.30;;;6.38;;
9906;SDS011;4992;51.628;6.664;2023-11-19T06:48:02;30.88;;;5.07;;
9906;SDS011;4992;51.628;6.664;2023-11-19T06:50:29;27.95;;;4.95;;
9906;SDS011;4992;51.628;6.664;2023-11-19T06:52:54;24.13;;;5.53;;
9906;SDS011;4992;51.628;6.664;2023-11-19T06:55:20;23.50;;;4.97;;
9906;SDS011;4992;51.628;6.664;2023-11-19T06:57:45;25.70;;;6.03;;
9906;SDS011;4992;51.628;6.664;2023-11-19T07:00:11;26.73;;;5.05;;
9906;SDS011;4992;51.628;6.664;2023-11-19T07:02:37;27.92;;;5.97;;
9906;SDS011;4992;51.628;6.664;2023-11-19T07:05:03;20.75;;;5.35;;
9906;SDS011;4992;51.628;6.664;2023-11-19T07:07:33;26.80;;;5.22;;
9906;SDS011;4992;51.628;6.664;2023-11-19T07:09:58;23.67;;;5.22;;
9906;SDS011;4992;51.628;6.664;2023-11-19T07:12:24;23.35;;;5.18;;
9906;SDS011;4992;51.628;6.664;2023-11-19T07:14:51;26.40;;;5.28;;
9906;SDS011;4992;51.628;6.664;2023-11-19T07:17:18;18.63;;;4.65;;
9906;SDS011;4992;51.628;6.664;2023-11-19T07:19:45;33.20;;;5.50;;
9906;SDS011;4992;51.628;6.664;2023-11-19T07:22:11;33.92;;;7.00;;
9906;SDS011;4992;51.628;6.664;2023-11-19T07:24:38;28.13;;;6.45;;
9906;SDS011;4992;51.628;6.664;2023-11-19T07:27:04;25.40;;;5.90;;
9906;SDS011;4992;51.628;6.664;2023-11-19T07:29:29;29.48;;;5.32;;
9906;SDS011;4992;51.628;6.664;2023-11-19T07:31:56;24.70;;;5.30;;
9906;SDS011;4992;51.628;6.664;2023-11-19T07:34:22;23.58;;;4.70;;
9906;SDS011;4992;51.628;6.664;2023-11-19T07:36:48;33.15;;;6.72;;
9906;SDS011;4992;51.628;6.664;2023-11-19T07:39:13;23.25;;;5.00;;
9906;SDS011;4992;51.628;6.664;2023-11-19T07:41:39;25.48;;;5.65;;
9906;SDS011;4992;51.628;6.664;2023-11-19T07:44:05;25.45;;;5.60;;
9906;SDS011;4992;51.628;6.664;2023-11-19T07:46:31;27.52;;;5.47;;
9906;SDS011;4992;51.628;6.664;2023-11-19T07:48:57;24.73;;;4.70;;
9906;SDS011;4992;51.628;6.664;2023-11-19T07:51:22;29.27;;;5.78;;
9906;SDS011;4992;51.628;6.664;2023-11-19T07:53:48;23.98;;;5.47;;
9906;SDS011;4992;51.628;6.664;2023-11-19T07:56:14;23.38;;;4.97;;
9906;SDS011;4992;51.628;6.664;2023-11-19T07:58:40;23.65;;;4.80;;
9906;SDS011;4992;51.628;6.664;2023-11-19T08:01:06;27.63;;;5.15;;
9906;SDS011;4992;51.628;6.664;2023-11-19T08:03:31;21.40;;;4.28;;
9906;SDS011;4992;51.628;6.664;2023-11-19T08:05:59;24.85;;;5.25;;
9906;SDS011;4992;51.628;6.664;2023-11-19T08:08:25;27.98;;;5.32;;
9906;SDS011;4992;51.628;6.664;2023-11-19T08:10:50;19.95;;;4.13;;
9906;SDS011;4992;51.628;6.664;2023-11-19T08:13:20;21.92;;;5.15;;
9906;SDS011;4992;51.628;6.664;2023-11-19T08:15:46;28.33;;;6.03;;
9906;SDS011;4992;51.628;6.664;2023-11-19T08:18:12;26.00;;;5.07;;
9906;SDS011;4992;51.628;6.664;2023-11-19T08:20:38;24.30;;;5.13;;
9906;SDS011;4992;51.628;6.664;2023-11-19T08:23:03;27.25;;;5.88;;
9906;SDS011;4992;51.628;6.664;2023-11-19T08:25:30;24.60;;;5.10;;
9906;SDS011;4992;51.628;6.664;2023-11-19T08:27:55;26.70;;;6.13;;
9906;SDS011;4992;51.628;6.664;2023-11-19T08:30:21;26.08;;;5.13;;
9906;SDS011;4992;51.628;6.664;2023-11-19T08:32:46;29.23;;;5.70;;
9906;SDS011;4992;51.628;6.664;2023-11-19T08:35:12;32.10;;;5.80;;
9906;SDS011;4992;51.628;6.664;2023-11-19T08:37:37;21.13;;;6.13;;
9906;SDS011;4992;51.628;6.664;2023-11-19T08:40:03;25.08;;;5.50;;
9906;SDS011;4992;51.628;6.664;2023-11-19T08:42:30;27.20;;;4.80;;
9906;SDS011;4992;51.628;6.664;2023-11-19T08:44:55;19.70;;;4.95;;
9906;SDS011;4992;51.628;6.664;2023-11-19T08:47:21;24.20;;;5.18;;
9906;SDS011;4992;51.628;6.664;2023-11-19T08:49:47;23.33;;;5.68;;
9906;SDS011;4992;51.628;6.664;2023-11-19T08:52:16;28.48;;;6.10;;
9906;SDS011;4992;51.628;6.664;2023-11-19T08:54:42;24.45;;;5.45;;
9906;SDS011;4992;51.628;6.664;2023-11-19T08:57:08;22.58;;;5.78;;
9906;SDS011;4992;51.628;6.664;2023-11-19T08:59:34;23.65;;;5.05;;
9906;SDS011;4992;51.628;6.664;2023-11-19T09:02:00;23.58;;;5.10;;
9906;SDS011;4992;51.628;6.664;2023-11-19T09:04:26;26.85;;;5.90;;
9906;SDS011;4992;51.628;6.664;2023-11-19T09:06:52;24.42;;;5.68;;
9906;SDS011;4992;51.628;6.664;2023-11-19T09:09:17;23.05;;;5.10;;
9906;SDS011;4992;51.628;6.664;2023-11-19T09:11:43;23.58;;;5.20;;
9906;SDS011;4992;51.628;6.664;2023-11-19T09:14:09;26.95;;;5.90;;
9906;SDS011;4992;51.628;6.664;2023-11-19T09:16:34;27.75;;;5.68;;
9906;SDS011;4992;51.628;6.664;2023-11-19T09:19:00;24.77;;;5.80;;
9906;SDS011;4992;51.628;6.664;2023-11-19T09:21:27;17.38;;;4.35;;
9906;SDS011;4992;51.628;6.664;2023-11-19T09:23:54;21.67;;;5.45;;
9906;SDS011;4992;51.628;6.664;2023-11-19T09:26:20;23.00;;;5.30;;
9906;SDS011;4992;51.628;6.664;2023-11-19T09:28:46;26.20;;;5.18;;
9906;SDS011;4992;51.628;6.664;2023-11-19T09:31:15;23.52;;;5.68;;
9906;SDS011;4992;51.628;6.664;2023-11-19T09:33:42;20.58;;;4.95;;
9906;SDS011;4992;51.628;6.664;2023-11-19T09:36:08;22.45;;;5.43;;
9906;SDS011;4992;51.628;6.664;2023-11-19T09:38:33;22.27;;;4.65;;
9906;SDS011;4992;51.628;6.664;2023-11-19T09:41:03;30.40;;;6.03;;
9906;SDS011;4992;51.628;6.664;2023-11-19T09:43:33;23.33;;;4.50;;
9906;SDS011;4992;51.628;6.664;2023-11-19T09:45:59;28.75;;;5.90;;
9906;SDS011;4992;51.628;6.664;2023-11-19T09:48:32;22.23;;;5.35;;
9906;SDS011;4992;51.628;6.664;2023-11-19T09:50:59;21.55;;;4.72;;
9906;SDS011;4992;51.628;6.664;2023-11-19T09:53:26;20.95;;;4.47;;
9906;SDS011;4992;51.628;6.664;2023-11-19T09:55:51;23.77;;;5.10;;
9906;SDS011;4992;51.628;6.664;2023-11-19T09:58:18;22.00;;;5.30;;
9906;SDS011;4992;51.628;6.664;2023-11-19T10:00:44;23.67;;;5.28;;
9906;SDS011;4992;51.628;6.664;2023-11-19T10:03:10;28.45;;;5.07;;
9906;SDS011;4992;51.628;6.664;2023-11-19T10:05:37;30.55;;;5.18;;
9906;SDS011;4992;51.628;6.664;2023-11-19T10:08:04;25.02;;;5.32;;
9906;SDS011;4992;51.628;6.664;2023-11-19T10:10:30;26.55;;;6.57;;
9906;SDS011;4992;51.628;6.664;2023-11-19T10:12:55;22.45;;;5.38;;
9906;SDS011;4992;51.628;6.664;2023-11-19T10:15:21;29.98;;;4.70;;
9906;SDS011;4992;51.628;6.664;2023-11-19T10:17:49;24.70;;;6.05;;
9906;SDS011;4992;51.628;6.664;2023-11-19T10:20:15;29.05;;;5.35;;
9906;SDS011;4992;51.628;6.664;2023-11-19T10:22:41;19.30;;;4.38;;
9906;SDS011;4992;51.628;6.664;2023-11-19T10:25:23;20.65;;;4.57;;
9906;SDS011;4992;51.628;6.664;2023-11-19T10:27:50;22.92;;;5.65;;
9906;SDS011;4992;51.628;6.664;2023-11-19T10:30:23;22.30;;;5.07;;
9906;SDS011;4992;51.628;6.664;2023-11-19T10:33:06;29.42;;;6.47;;
9906;SDS011;4992;51.628;6.664;2023-11-19T10:35:49;19.15;;;4.97;;
9906;SDS011;4992;51.628;6.664;2023-11-19T10:38:21;24.98;;;5.63;;
9906;SDS011;4992;51.628;6.664;2023-11-19T10:40:47;25.67;;;5.53;;
9906;SDS011;4992;51.628;6.664;2023-11-19T10:43:14;28.38;;;4.90;;
9906;SDS011;4992;51.628;6.664;2023-11-19T10:45:40;30.95;;;5.43;;
9906;SDS011;4992;51.628;6.664;2023-11-19T10:48:06;24.33;;;5.20;;
9906;SDS011;4992;51.628;6.664;2023-11-19T10:50:38;22.63;;;5.72;;
9906;SDS011;4992;51.628;6.664;2023-11-19T10:53:06;23.05;;;4.80;;
9906;SDS011;4992;51.628;6.664;2023-11-19T10:55:33;29.95;;;5.90;;
9906;SDS011;4992;51.628;6.664;2023-11-19T10:58:02;26.38;;;5.55;;
9906;SDS011;4992;51.628;6.664;2023-11-19T11:00:29;21.02;;;5.43;;
9906;SDS011;4992;51.628;6.664;2023-11-19T11:03:01;23.23;;;4.93;;
9906;SDS011;4992;51.628;6.664;2023-11-19T11:05:32;28.42;;;4.82;;
9906;SDS011;4992;51.628;6.664;2023-11-19T11:08:01;17.73;;;4.63;;
9906;SDS011;4992;51.628;6.664;2023-11-19T11:10:27;21.27;;;4.38;;
9906;SDS011;4992;51.628;6.664;2023-11-19T11:12:55;23.42;;;6.03;;
9906;SDS011;4992;51.628;6.664;2023-11-19T11:15:27;25.63;;;4.35;;
9906;SDS011;4992;51.628;6.664;2023-11-19T11:17:59;21.83;;;5.28;;
9906;SDS011;4992;51.628;6.664;2023-11-19T11:20:29;20.60;;;4.70;;
9906;SDS011;4992;51.628;6.664;2023-11-19T11:37:18;21.17;;;4.38;;
9906;SDS011;4992;51.628;6.664;2023-11-19T11:39:51;19.70;;;4.55;;
9906;SDS011;4992;51.628;6.664;2023-11-19T11:47:23;22.23;;;5.43;;
9906;SDS011;4992;51.628;6.664;2023-11-19T11:49:49;17.70;;;4.22;;
9906;SDS011;4992;51.628;6.664;2023-11-19T11:52:16;19.00;;;5.07;;
9906;SDS011;4992;51.628;6.664;2023-11-19T11:54:43;20.63;;;3.78;;
9906;SDS011;4992;51.628;6.664;2023-11-19T11:57:10;20.70;;;5.30;;
9906;SDS011;4992;51.628;6.664;2023-11-19T12:02:10;20.20;;;4.15;;
9906;SDS011;4992;51.628;6.664;2023-11-19T12:04:36;20.08;;;3.88;;
9906;SDS011;4992;51.628;6.664;2023-11-19T12:07:06;19.10;;;4.47;;
9906;SDS011;4992;51.628;6.664;2023-11-19T12:09:33;20.02;;;4.53;;
9906;SDS011;4992;51.628;6.664;2023-11-19T12:12:12;17.17;;;3.97;;
9906;SDS011;4992;51.628;6.664;2023-11-19T12:20:00;20.83;;;4.85;;
9906;SDS011;4992;51.628;6.664;2023-11-19T12:22:26;18.98;;;4.50;;
9906;SDS011;4992;51.628;6.664;2023-11-19T12:24:55;23.02;;;4.60;;
9906;SDS011;4992;51.628;6.664;2023-11-19T12:27:21;19.70;;;3.92;;
9906;SDS011;4992;51.628;6.664;2023-11-19T12:29:48;18.65;;;3.90;;
9906;SDS011;4992;51.628;6.664;2023-11-19T12:32:13;18.70;;;4.40;;
9906;SDS011;4992;51.628;6.664;2023-11-19T12:34:39;22.65;;;4.65;;
9906;SDS011;4992;51.628;6.664;2023-11-19T12:37:05;23.40;;;4.30;;
9906;SDS011;4992;51.628;6.664;2023-11-19T12:39:31;19.17;;;3.85;;
9906;SDS011;4992;51.628;6.664;2023-11-19T12:41:57;28.77;;;4.65;;
9906;SDS011;4992;51.628;6.664;2023-11-19T12:44:25;24.90;;;4.53;;
9906;SDS011;4992;51.628;6.664;2023-11-19T12:49:27;22.40;;;4.63;;
9906;SDS011;4992;51.628;6.664;2023-11-19T12:51:52;16.95;;;4.38;;
9906;SDS011;4992;51.628;6.664;2023-11-19T12:54:18;22.58;;;4.20;;
9906;SDS011;4992;51.628;6.664;2023-11-19T12:56:53;25.25;;;4.68;;
9906;SDS011;4992;51.628;6.664;2023-11-19T12:59:19;15.82;;;3.83;;
9906;SDS011;4992;51.628;6.664;2023-11-19T13:01:54;22.20;;;3.88;;
9906;SDS011;4992;51.628;6.664;2023-11-19T13:04:20;19.95;;;4.80;;
9906;SDS011;4992;51.628;6.664;2023-11-19T13:06:46;16.00;;;4.10;;
9906;SDS011;4992;51.628;6.664;2023-11-19T13:09:21;19.83;;;4.43;;
9906;SDS011;4992;51.628;6.664;2023-11-19T13:11:50;17.27;;;3.80;;
9906;SDS011;4992;51.628;6.664;2023-11-19T13:14:17;20.73;;;4.50;;
9906;SDS011;4992;51.628;6.664;2023-11-19T13:16:44;15.90;;;4.18;;
9906;SDS011;4992;51.628;6.664;2023-11-19T13:19:14;17.15;;;4.05;;
9906;SDS011;4992;51.628;6.664;2023-11-19T13:21:41;17.85;;;3.42;;
9906;SDS011;4992;51.628;6.664;2023-11-19T13:24:07;16.73;;;3.92;;
9906;SDS011;4992;51.628;6.664;2023-11-19T13:26:32;14.35;;;3.00;;
9906;SDS011;4992;51.628;6.664;2023-11-19T13:28:58;19.27;;;3.80;;
9906;SDS011;4992;51.628;6.664;2023-11-19T13:31:24;17.50;;;3.72;;
9906;SDS011;4992;51.628;6.664;2023-11-19T13:33:50;18.35;;;4.68;;
9906;SDS011;4992;51.628;6.664;2023-11-19T13:36:16;14.05;;;3.63;;
9906;SDS011;4992;51.628;6.664;2023-11-19T13:38:41;18.25;;;4.38;;
9906;SDS011;4992;51.628;6.664;2023-11-19T13:41:09;17.25;;;4.25;;
9906;SDS011;4992;51.628;6.664;2023-11-19T13:43:35;16.42;;;3.53;;
9906;SDS011;4992;51.628;6.664;2023-11-19T13:46:00;21.02;;;5.55;;
9906;SDS011;4992;51.628;6.664;2023-11-19T13:48:26;17.40;;;4.15;;
9906;SDS011;4992;51.628;6.664;2023-11-19T13:50:53;16.83;;;4.50;;
9906;SDS011;4992;51.628;6.664;2023-11-19T13:53:19;15.20;;;4.00;;
9906;SDS011;4992;51.628;6.664;2023-11-19T13:55:45;18.48;;;3.88;;
9906;SDS011;4992;51.628;6.664;2023-11-19T13:58:11;15.35;;;3.55;;
9906;SDS011;4992;51.628;6.664;2023-11-19T14:00:36;15.30;;;3.60;;
9906;SDS011;4992;51.628;6.664;2023-11-19T14:03:02;12.63;;;2.95;;
9906;SDS011;4992;51.628;6.664;2023-11-19T14:05:29;18.98;;;4.93;;
9906;SDS011;4992;51.628;6.664;2023-11-19T14:07:55;16.60;;;3.65;;
9906;SDS011;4992;51.628;6.664;2023-11-19T14:10:21;21.08;;;5.57;;
9906;SDS011;4992;51.628;6.664;2023-11-19T14:12:47;15.90;;;3.65;;
9906;SDS011;4992;51.628;6.664;2023-11-19T14:15:14;16.60;;;4.40;;
9906;SDS011;4992;51.628;6.664;2023-11-19T14:17:42;18.05;;;4.20;;
9906;SDS011;4992;51.628;6.664;2023-11-19T14:20:08;15.63;;;3.72;;
9906;SDS011;4992;51.628;6.664;2023-11-19T14:22:43;15.63;;;4.32;;
9906;SDS011;4992;51.628;6.664;2023-11-19T14:25:13;18.98;;;3.80;;
9906;SDS011;4992;51.628;6.664;2023-11-19T14:27:39;13.70;;;3.80;;
9906;SDS011;4992;51.628;6.664;2023-11-19T14:30:06;23.70;;;4.55;;
9906;SDS011;4992;51.628;6.664;2023-11-19T14:32:33;16.05;;;3.28;;
9906;SDS011;4992;51.628;6.664;2023-11-19T14:35:00;18.95;;;4.05;;
9906;SDS011;4992;51.628;6.664;2023-11-19T14:37:26;21.25;;;4.43;;
9906;SDS011;4992;51.628;6.664;2023-11-19T14:39:51;16.63;;;3.60;;
9906;SDS011;4992;51.628;6.664;2023-11-19T14:42:17;18.63;;;4.47;;
9906;SDS011;4992;51.628;6.664;2023-11-19T14:44:43;17.35;;;3.85;;
9906;SDS011;4992;51.628;6.664;2023-11-19T14:47:08;19.33;;;4.43;;
9906;SDS011;4992;51.628;6.664;2023-11-19T14:49:35;17.65;;;3.97;;
9906;SDS011;4992;51.628;6.664;2023-11-19T14:52:01;20.00;;;4.30;;
9906;SDS011;4992;51.628;6.664;2023-11-19T14:54:28;13.35;;;3.58;;
9906;SDS011;4992;51.628;6.664;2023-11-19T14:56:53;20.60;;;4.38;;
9906;SDS011;4992;51.628;6.664;2023-11-19T14:59:19;15.73;;;3.58;;
9906;SDS011;4992;51.628;6.664;2023-11-19T15:01:45;17.33;;;3.70;;
9906;SDS011;4992;51.628;6.664;2023-11-19T15:04:11;14.52;;;3.60;;
9906;SDS011;4992;51.628;6.664;2023-11-19T15:06:37;17.63;;;4.15;;
9906;SDS011;4992;51.628;6.664;2023-11-19T15:09:03;19.45;;;4.05;;
9906;SDS011;4992;51.628;6.664;2023-11-19T15:11:29;19.05;;;4.25;;
9906;SDS011;4992;51.628;6.664;2023-11-19T15:13:55;15.70;;;3.70;;
9906;SDS011;4992;51.628;6.664;2023-11-19T15:16:21;16.75;;;3.17;;
9906;SDS011;4992;51.628;6.664;2023-11-19T15:18:56;14.93;;;3.90;;
9906;SDS011;4992;51.628;6.664;2023-11-19T15:21:24;15.85;;;3.28;;
9906;SDS011;4992;51.628;6.664;2023-11-19T15:23:51;14.93;;;3.17;;
9906;SDS011;4992;51.628;6.664;2023-11-19T15:26:17;15.82;;;3.80;;